createdAt,value
2023-03-29T00:02:10.590Z,99.90
2023-03-29T00:04:39.118Z,99.90
2023-03-29T00:07:05.907Z,99.90
2023-03-29T00:09:33.521Z,99.90
2023-03-29T00:12:01.323Z,99.90
2023-03-29T00:14:30.430Z,99.90
2023-03-29T00:16:57.571Z,99.90
2023-03-29T00:19:24.239Z,99.90
2023-03-29T00:21:50.823Z,99.90
2023-03-29T00:24:17.549Z,99.90
2023-03-29T00:26:44.133Z,99.90
2023-03-29T00:29:10.715Z,99.90
2023-03-29T00:31:37.329Z,99.90
2023-03-29T00:34:04.008Z,99.90
2023-03-29T00:36:30.748Z,99.90
2023-03-29T00:38:57.354Z,99.90
2023-03-29T00:41:23.929Z,99.90
2023-03-29T00:44:02.036Z,99.90
2023-03-29T00:46:30.550Z,99.90
2023-03-29T00:49:07.162Z,99.90
2023-03-29T00:51:38.021Z,99.90
2023-03-29T00:54:08.997Z,99.90
2023-03-29T00:56:39.722Z,99.90
2023-03-29T00:59:28.451Z,99.90
2023-03-29T01:02:03.146Z,99.90
2023-03-29T01:04:36.364Z,99.90
2023-03-29T01:07:13.599Z,99.90
2023-03-29T01:09:44.514Z,99.90
2023-03-29T01:12:19.737Z,99.90
2023-03-29T01:14:54.197Z,99.90
2023-03-29T01:17:25.528Z,99.90
2023-03-29T01:19:58.960Z,99.90
2023-03-29T01:23:07.437Z,99.90
2023-03-29T01:26:12.472Z,99.90
2023-03-29T01:29:10.553Z,99.90
2023-03-29T01:31:41.985Z,99.90
2023-03-29T01:34:25.702Z,99.90
2023-03-29T01:37:00.368Z,99.90
2023-03-29T01:39:27.323Z,99.90
2023-03-29T01:41:56.606Z,99.90
2023-03-29T01:44:43.320Z,99.90
2023-03-29T01:47:36.911Z,99.90
2023-03-29T01:50:15.890Z,99.90
2023-03-29T01:52:52.185Z,99.90
2023-03-29T01:55:24.535Z,99.90
2023-03-29T01:57:54.017Z,99.90
2023-03-29T02:00:24.749Z,99.90
2023-03-29T02:02:53.931Z,99.90
2023-03-29T02:05:23.477Z,99.90
2023-03-29T02:07:51.414Z,99.90
2023-03-29T02:10:20.184Z,99.90
2023-03-29T02:12:47.355Z,99.90
2023-03-29T02:15:16.724Z,99.90
2023-03-29T02:17:44.299Z,99.90
2023-03-29T02:20:26.865Z,99.90
2023-03-29T02:23:04.474Z,99.90
2023-03-29T02:25:32.399Z,99.90
2023-03-29T02:28:00.823Z,99.90
2023-03-29T02:30:53.530Z,99.90
2023-03-29T02:33:37.887Z,99.90
2023-03-29T02:36:17.652Z,99.90
2023-03-29T02:38:44.906Z,99.90
2023-03-29T02:41:12.271Z,99.90
2023-03-29T02:43:40.671Z,99.90
2023-03-29T02:46:08.098Z,99.90
2023-03-29T02:48:37.268Z,99.90
2023-03-29T02:51:12.394Z,99.90
2023-03-29T02:53:47.292Z,99.90
2023-03-29T02:56:14.149Z,99.90
2023-03-29T02:58:40.943Z,99.90
2023-03-29T03:01:08.334Z,99.90
2023-03-29T03:03:35.771Z,99.90
2023-03-29T03:06:02.771Z,99.90
2023-03-29T03:08:29.804Z,99.90
2023-03-29T03:10:56.511Z,99.90
2023-03-29T03:13:23.065Z,99.90
2023-03-29T03:15:49.693Z,99.90
2023-03-29T03:18:16.825Z,99.90
2023-03-29T03:20:46.893Z,99.90
2023-03-29T03:23:13.549Z,99.90
2023-03-29T03:25:40.319Z,99.90
2023-03-29T03:28:07.489Z,99.90
2023-03-29T03:30:34.645Z,99.90
2023-03-29T03:33:01.349Z,99.90
2023-03-29T03:35:28.026Z,99.90
2023-03-29T03:37:55.165Z,99.90
2023-03-29T03:40:22.012Z,99.90
2023-03-29T03:42:48.572Z,99.90
2023-03-29T03:45:15.411Z,99.90
2023-03-29T03:47:42.195Z,99.90
2023-03-29T03:50:09.159Z,99.90
2023-03-29T03:52:35.767Z,99.90
2023-03-29T03:55:04.256Z,99.90
2023-03-29T03:57:32.994Z,99.90
2023-03-29T03:59:59.963Z,99.90
2023-03-29T04:02:27.460Z,99.90
2023-03-29T04:04:54.751Z,99.90
2023-03-29T04:07:21.373Z,99.90
2023-03-29T04:09:47.938Z,99.90
2023-03-29T04:12:14.538Z,99.90
2023-03-29T04:14:41.194Z,99.90
2023-03-29T04:17:07.893Z,99.90
2023-03-29T04:19:35.267Z,99.90
2023-03-29T04:22:01.883Z,99.90
2023-03-29T04:24:28.520Z,99.90
2023-03-29T04:26:55.426Z,99.90
2023-03-29T04:29:21.996Z,99.90
2023-03-29T04:31:48.617Z,99.90
2023-03-29T04:34:15.419Z,99.90
2023-03-29T04:36:41.979Z,99.90
2023-03-29T04:39:09.167Z,99.90
2023-03-29T04:41:35.753Z,99.90
2023-03-29T04:44:02.581Z,99.90
2023-03-29T04:46:29.730Z,99.90
2023-03-29T04:48:56.524Z,99.90
2023-03-29T04:51:24.338Z,99.90
2023-03-29T04:53:51.162Z,99.90
2023-03-29T04:56:17.875Z,99.90
2023-03-29T04:58:44.528Z,99.90
2023-03-29T05:01:11.315Z,99.90
2023-03-29T05:03:37.973Z,99.90
2023-03-29T05:06:07.123Z,99.90
2023-03-29T05:08:37.501Z,99.90
2023-03-29T05:11:04.965Z,99.90
2023-03-29T05:13:31.614Z,99.90
2023-03-29T05:16:00.650Z,99.90
2023-03-29T05:18:28.578Z,99.90
2023-03-29T05:20:55.648Z,99.90
2023-03-29T05:23:23.752Z,99.90
2023-03-29T05:25:51.344Z,99.90
2023-03-29T05:28:18.451Z,99.90
2023-03-29T05:30:45.861Z,99.90
2023-03-29T05:33:12.706Z,99.90
2023-03-29T05:35:39.469Z,99.90
2023-03-29T05:38:06.393Z,99.90
2023-03-29T05:40:33.598Z,99.90
2023-03-29T05:43:02.421Z,99.90
2023-03-29T05:45:29.967Z,99.90
2023-03-29T05:47:57.594Z,99.90
2023-03-29T05:50:24.733Z,99.90
2023-03-29T05:52:51.564Z,99.90
2023-03-29T05:55:18.397Z,99.90
2023-03-29T05:57:44.995Z,99.90
2023-03-29T06:00:23.863Z,99.90
2023-03-29T06:02:52.533Z,99.90
2023-03-29T06:05:20.097Z,99.90
2023-03-29T06:07:50.294Z,99.90
2023-03-29T06:10:17.859Z,99.90
2023-03-29T06:12:45.036Z,99.90
2023-03-29T06:15:13.235Z,99.90
2023-03-29T06:17:40.061Z,99.90
2023-03-29T06:20:11.795Z,99.90
2023-03-29T06:22:39.346Z,99.90
2023-03-29T06:25:07.782Z,99.90
2023-03-29T06:27:34.663Z,99.90
2023-03-29T06:30:02.554Z,99.90
2023-03-29T06:32:29.725Z,99.90
2023-03-29T06:34:56.444Z,99.90
2023-03-29T06:37:23.678Z,99.90
2023-03-29T06:39:53.381Z,99.90
2023-03-29T06:42:21.570Z,99.90
2023-03-29T06:44:49.589Z,99.90
2023-03-29T06:47:17.234Z,99.90
2023-03-29T06:49:44.359Z,99.90
2023-03-29T06:52:11.151Z,99.90
2023-03-29T06:54:38.812Z,99.90
2023-03-29T06:57:05.423Z,99.90
2023-03-29T06:59:32.065Z,99.90
2023-03-29T07:01:58.739Z,99.90
2023-03-29T07:04:25.569Z,99.90
2023-03-29T07:07:01.236Z,99.90
2023-03-29T07:09:30.002Z,99.90
2023-03-29T07:11:57.496Z,99.90
2023-03-29T07:14:28.494Z,99.90
2023-03-29T07:16:55.915Z,99.90
2023-03-29T07:19:25.097Z,99.90
2023-03-29T07:21:53.261Z,99.90
2023-03-29T07:24:20.782Z,99.90
2023-03-29T07:27:00.272Z,99.90
2023-03-29T07:29:30.484Z,99.90
2023-03-29T07:31:57.263Z,99.90
2023-03-29T07:34:24.336Z,99.90
2023-03-29T07:36:51.559Z,99.90
2023-03-29T07:39:18.275Z,99.90
2023-03-29T07:41:44.890Z,99.90
2023-03-29T07:44:11.456Z,99.90
2023-03-29T07:46:38.182Z,99.90
2023-03-29T07:49:05.529Z,99.90
2023-03-29T07:51:32.132Z,99.90
2023-03-29T07:53:59.894Z,99.90
2023-03-29T07:56:27.042Z,99.90
2023-03-29T07:58:53.609Z,99.90
2023-03-29T08:01:20.382Z,99.90
2023-03-29T08:03:47.269Z,99.90
2023-03-29T08:06:16.100Z,99.90
2023-03-29T08:08:42.699Z,99.90
2023-03-29T08:11:10.142Z,99.90
2023-03-29T08:13:37.317Z,99.90
2023-03-29T08:16:05.729Z,99.90
2023-03-29T08:18:34.737Z,99.90
2023-03-29T08:21:01.864Z,99.90
2023-03-29T08:23:28.628Z,99.90
2023-03-29T08:25:55.244Z,99.90
2023-03-29T08:28:22.316Z,99.90
2023-03-29T08:30:49.672Z,99.90
2023-03-29T08:33:16.929Z,99.90
2023-03-29T08:35:43.875Z,99.90
2023-03-29T08:38:11.122Z,99.90
2023-03-29T08:40:37.786Z,99.90
2023-03-29T08:43:30.635Z,99.90
2023-03-29T08:46:07.430Z,99.90
2023-03-29T08:48:42.089Z,99.90
2023-03-29T08:51:21.431Z,99.90
2023-03-29T08:53:56.749Z,99.90
2023-03-29T08:56:26.775Z,99.90
2023-03-29T08:58:56.242Z,99.90
2023-03-29T09:01:24.459Z,99.90
2023-03-29T09:04:06.101Z,99.90
2023-03-29T09:06:32.742Z,99.90
2023-03-29T09:08:59.429Z,99.90
2023-03-29T09:11:44.103Z,99.90
2023-03-29T09:14:35.102Z,99.90
2023-03-29T09:17:30.599Z,99.90
2023-03-29T09:20:20.937Z,99.90
2023-03-29T09:23:22.370Z,99.90
2023-03-29T09:26:05.286Z,99.90
2023-03-29T09:28:55.444Z,99.90
2023-03-29T09:31:27.280Z,99.90
2023-03-29T09:33:59.650Z,99.90
2023-03-29T09:36:52.701Z,99.90
2023-03-29T09:39:23.591Z,99.90
2023-03-29T09:42:00.866Z,99.90
2023-03-29T09:44:32.904Z,99.90
2023-03-29T09:47:17.282Z,99.90
2023-03-29T09:49:49.192Z,99.90
2023-03-29T09:52:17.220Z,99.90
2023-03-29T09:54:44.376Z,99.90
2023-03-29T09:57:13.850Z,99.90
2023-03-29T09:59:40.972Z,99.80
2023-03-29T10:02:12.888Z,99.90
2023-03-29T10:04:42.065Z,99.90
2023-03-29T10:07:18.068Z,99.90
2023-03-29T10:09:46.413Z,99.90
2023-03-29T10:12:13.956Z,99.90
2023-03-29T10:14:49.820Z,99.70
2023-03-29T10:17:23.660Z,99.80
2023-03-29T10:19:57.778Z,99.80
2023-03-29T10:22:33.083Z,99.90
2023-03-29T10:24:59.635Z,99.90
2023-03-29T10:27:28.812Z,99.70
2023-03-29T10:29:58.296Z,99.70
2023-03-29T10:32:34.577Z,99.80
2023-03-29T10:35:22.742Z,99.30
2023-03-29T10:37:55.649Z,99.40
2023-03-29T10:40:30.693Z,98.90
2023-03-29T10:43:20.478Z,99.00
2023-03-29T10:45:52.173Z,99.00
2023-03-29T10:48:23.537Z,98.90
2023-03-29T10:50:52.981Z,99.10
2023-03-29T10:53:28.748Z,98.90
2023-03-29T10:56:13.672Z,98.70
2023-03-29T10:59:16.544Z,98.40
2023-03-29T11:02:24.278Z,98.80
2023-03-29T11:05:17.667Z,98.90
2023-03-29T11:08:16.960Z,98.70
2023-03-29T11:11:09.335Z,98.90
2023-03-29T11:13:58.075Z,99.10
2023-03-29T11:16:49.928Z,99.00
2023-03-29T11:19:37.741Z,98.20
2023-03-29T11:22:31.586Z,98.40
2023-03-29T11:25:27.755Z,98.30
2023-03-29T11:28:13.006Z,98.70
2023-03-29T11:30:58.773Z,98.20
2023-03-29T11:33:44.138Z,98.10
2023-03-29T11:36:43.133Z,98.10
2023-03-29T11:39:27.032Z,97.90
2023-03-29T11:41:58.168Z,97.50
2023-03-29T11:44:29.615Z,97.30
2023-03-29T11:47:05.842Z,96.80
2023-03-29T11:49:32.670Z,96.50
2023-03-29T11:52:13.426Z,96.50
2023-03-29T11:54:46.015Z,96.30
2023-03-29T11:57:33.572Z,96.40
2023-03-29T12:00:15.821Z,96.60
2023-03-29T12:02:47.904Z,96.50
2023-03-29T12:05:27.304Z,96.50
2023-03-29T12:08:05.112Z,96.50
2023-03-29T12:10:38.995Z,96.30
2023-03-29T12:13:11.399Z,95.80
2023-03-29T12:16:28.654Z,95.60
2023-03-29T12:18:58.070Z,95.70
2023-03-29T12:21:28.537Z,96.00
2023-03-29T12:23:55.291Z,95.80
2023-03-29T12:26:48.451Z,95.90
2023-03-29T12:29:42.807Z,95.00
2023-03-29T12:32:37.247Z,95.30
2023-03-29T12:35:23.080Z,94.50
2023-03-29T12:38:11.157Z,94.90
2023-03-29T12:40:46.827Z,94.70
2023-03-29T12:43:36.594Z,94.40
2023-03-29T12:46:25.775Z,94.20
2023-03-29T12:49:04.993Z,94.30
2023-03-29T12:51:33.821Z,94.30
2023-03-29T12:54:22.529Z,94.40
2023-03-29T12:56:52.030Z,94.70
2023-03-29T12:59:54.079Z,94.70
2023-03-29T13:02:35.293Z,94.40
2023-03-29T13:05:04.723Z,94.10
2023-03-29T13:07:44.719Z,94.30
2023-03-29T13:10:50.146Z,94.00
2023-03-29T13:13:28.054Z,94.20
2023-03-29T13:15:56.819Z,94.30
2023-03-29T13:18:42.804Z,94.20
2023-03-29T13:21:35.824Z,94.60
2023-03-29T13:24:22.966Z,94.60
2023-03-29T13:27:06.208Z,94.50
2023-03-29T13:29:47.591Z,94.80
2023-03-29T13:32:30.415Z,93.90
2023-03-29T13:35:10.389Z,94.70
2023-03-29T13:37:45.803Z,94.90
2023-03-29T13:40:53.265Z,94.30
2023-03-29T13:43:19.740Z,94.30
2023-03-29T13:45:54.499Z,94.30
2023-03-29T13:48:30.013Z,94.30
2023-03-29T13:51:03.344Z,94.30
2023-03-29T13:53:49.377Z,94.50
2023-03-29T13:56:22.031Z,94.80
2023-03-29T13:59:09.402Z,94.40
2023-03-29T14:01:50.727Z,94.60
2023-03-29T14:04:26.509Z,94.60
2023-03-29T14:06:56.006Z,94.90
2023-03-29T14:09:30.149Z,95.30
2023-03-29T14:11:59.511Z,94.30
2023-03-29T14:14:28.108Z,94.40
2023-03-29T14:16:56.564Z,94.30
2023-03-29T14:19:36.251Z,94.30
2023-03-29T14:22:08.033Z,94.70
2023-03-29T14:24:38.785Z,94.60
2023-03-29T14:27:07.356Z,94.50
2023-03-29T14:29:35.011Z,94.70
2023-03-29T14:32:13.225Z,95.10
2023-03-29T14:34:40.472Z,95.00
2023-03-29T14:37:09.070Z,95.00
2023-03-29T14:39:36.201Z,95.20
2023-03-29T14:42:03.134Z,95.40
2023-03-29T14:44:34.718Z,95.60
2023-03-29T14:47:02.974Z,95.60
2023-03-29T14:49:30.082Z,95.70
2023-03-29T14:51:57.182Z,95.70
2023-03-29T14:54:29.334Z,95.90
2023-03-29T14:56:56.171Z,96.10
2023-03-29T14:59:37.646Z,96.30
2023-03-29T15:02:21.745Z,96.40
2023-03-29T15:04:55.425Z,96.30
2023-03-29T15:07:27.215Z,96.20
2023-03-29T15:09:55.242Z,96.40
2023-03-29T15:12:22.143Z,96.70
2023-03-29T15:14:51.678Z,97.10
2023-03-29T15:17:31.301Z,97.30
2023-03-29T15:20:12.261Z,97.70
2023-03-29T15:22:51.164Z,98.00
2023-03-29T15:25:18.987Z,98.40
2023-03-29T15:27:51.134Z,99.00
2023-03-29T15:30:18.954Z,99.90
2023-03-29T15:32:45.938Z,99.90
2023-03-29T15:35:24.688Z,99.90
2023-03-29T15:37:53.003Z,99.90
2023-03-29T15:40:25.030Z,99.90
2023-03-29T15:42:53.200Z,99.90
2023-03-29T15:45:22.217Z,99.90
2023-03-29T15:47:48.899Z,99.90
2023-03-29T15:50:15.618Z,99.90
2023-03-29T15:52:42.371Z,99.90
2023-03-29T15:55:09.801Z,99.90
2023-03-29T15:57:36.816Z,99.90
2023-03-29T16:00:07.849Z,99.90
2023-03-29T16:02:34.913Z,99.90
2023-03-29T16:05:01.693Z,99.90
2023-03-29T16:07:30.034Z,99.90
2023-03-29T16:09:57.712Z,99.90
2023-03-29T16:12:24.400Z,99.90
2023-03-29T16:14:51.039Z,99.90
2023-03-29T16:17:17.667Z,99.90
2023-03-29T16:19:44.237Z,99.90
2023-03-29T16:22:10.853Z,99.90
2023-03-29T16:24:37.632Z,99.90
2023-03-29T16:27:04.339Z,99.90
2023-03-29T16:29:31.143Z,99.90
2023-03-29T16:31:58.281Z,99.90
2023-03-29T16:34:25.026Z,99.90
2023-03-29T16:36:52.995Z,99.90
2023-03-29T16:39:20.731Z,99.90
2023-03-29T16:41:48.948Z,99.90
2023-03-29T16:44:19.043Z,99.90
2023-03-29T16:46:47.592Z,99.90
2023-03-29T16:49:18.313Z,99.90
2023-03-29T16:51:48.233Z,99.90
2023-03-29T16:54:17.152Z,99.90
2023-03-29T16:56:43.791Z,99.90
2023-03-29T16:59:10.472Z,99.90
2023-03-29T17:01:37.373Z,99.90
2023-03-29T17:04:04.426Z,99.90
2023-03-29T17:06:32.562Z,99.90
2023-03-29T17:08:59.396Z,99.90
2023-03-29T17:11:26.749Z,99.90
2023-03-29T17:13:53.960Z,99.90
2023-03-29T17:16:20.677Z,99.90
2023-03-29T17:18:50.768Z,99.90
2023-03-29T17:21:17.476Z,99.90
2023-03-29T17:23:46.197Z,99.90
2023-03-29T17:26:13.278Z,99.90
2023-03-29T17:28:43.493Z,99.90
2023-03-29T17:31:10.209Z,99.90
2023-03-29T17:33:44.196Z,99.90
2023-03-29T17:36:11.220Z,99.90
2023-03-29T17:38:38.148Z,99.90
2023-03-29T17:41:07.034Z,99.90
2023-03-29T17:43:33.895Z,99.90
2023-03-29T17:46:00.572Z,99.90
2023-03-29T17:48:28.396Z,99.90
2023-03-29T17:50:56.257Z,99.90
2023-03-29T17:53:22.797Z,99.90
2023-03-29T17:55:49.440Z,99.90
2023-03-29T17:58:18.200Z,99.90
2023-03-29T18:00:44.969Z,99.90
2023-03-29T18:03:12.019Z,99.90
2023-03-29T18:05:38.610Z,99.90
2023-03-29T18:08:05.733Z,99.90
2023-03-29T18:10:32.482Z,99.90
2023-03-29T18:12:59.033Z,99.90
2023-03-29T18:15:25.635Z,99.90
2023-03-29T18:17:52.233Z,99.90
2023-03-29T18:20:23.421Z,99.90
2023-03-29T18:22:50.086Z,99.90
2023-03-29T18:25:19.449Z,99.90
2023-03-29T18:27:46.043Z,99.90
2023-03-29T18:30:13.933Z,99.90
2023-03-29T18:32:43.540Z,99.90
2023-03-29T18:35:10.873Z,99.90
2023-03-29T18:37:37.660Z,99.90
2023-03-29T18:40:08.040Z,99.90
2023-03-29T18:42:34.929Z,99.90
2023-03-29T18:45:01.792Z,99.90
2023-03-29T18:47:31.575Z,99.90
2023-03-29T18:49:58.223Z,99.90
2023-03-29T18:52:24.786Z,99.90
2023-03-29T18:54:57.180Z,99.90
2023-03-29T18:57:23.836Z,99.90
2023-03-29T18:59:50.553Z,99.90
2023-03-29T19:02:17.258Z,99.90
2023-03-29T19:04:43.852Z,99.90
2023-03-29T19:07:10.515Z,99.90
2023-03-29T19:09:41.502Z,99.90
2023-03-29T19:12:08.199Z,99.90
2023-03-29T19:14:34.815Z,99.90
2023-03-29T19:17:01.477Z,99.90
2023-03-29T19:19:28.079Z,99.90
2023-03-29T19:21:57.107Z,99.90
2023-03-29T19:24:25.739Z,99.90
2023-03-29T19:26:52.632Z,99.90
2023-03-29T19:29:19.211Z,99.90
2023-03-29T19:31:46.108Z,99.90
2023-03-29T19:34:12.842Z,99.90
2023-03-29T19:36:39.616Z,99.90
2023-03-29T19:39:07.174Z,99.90
2023-03-29T19:41:33.752Z,99.90
2023-03-29T19:44:00.512Z,99.90
2023-03-29T19:46:28.812Z,99.90
2023-03-29T19:48:56.245Z,99.90
2023-03-29T19:51:23.454Z,99.90
2023-03-29T19:53:50.194Z,99.90
2023-03-29T19:56:17.678Z,99.90
2023-03-29T19:58:44.227Z,99.90
2023-03-29T20:01:10.765Z,99.90
2023-03-29T20:03:37.527Z,99.90
2023-03-29T20:06:04.513Z,99.90
2023-03-29T20:08:31.209Z,99.90
2023-03-29T20:10:59.589Z,99.90
2023-03-29T20:13:37.360Z,99.90
2023-03-29T20:16:07.035Z,99.90
2023-03-29T20:18:33.606Z,99.90
2023-03-29T20:21:01.799Z,99.90
2023-03-29T20:23:33.619Z,99.90
2023-03-29T20:26:00.289Z,99.90
2023-03-29T20:28:27.468Z,99.90
2023-03-29T20:30:54.086Z,99.90
2023-03-29T20:33:21.732Z,99.90
2023-03-29T20:35:49.282Z,99.90
2023-03-29T20:38:16.134Z,99.90
2023-03-29T20:40:42.781Z,99.90
2023-03-29T20:43:18.870Z,99.90
2023-03-29T20:45:53.486Z,99.90
2023-03-29T20:48:23.281Z,99.90
2023-03-29T20:50:50.885Z,99.90
2023-03-29T20:53:18.258Z,99.90
2023-03-29T20:55:45.089Z,99.90
2023-03-29T20:58:11.706Z,99.90
2023-03-29T21:00:38.316Z,99.90
2023-03-29T21:03:05.037Z,99.90
2023-03-29T21:05:33.329Z,99.90
2023-03-29T21:08:00.336Z,99.90
2023-03-29T21:10:28.062Z,99.90
2023-03-29T21:12:59.928Z,99.90
2023-03-29T21:15:28.593Z,99.90
2023-03-29T21:20:22.204Z,99.90
2023-03-29T21:22:48.798Z,99.90
2023-03-29T21:25:15.797Z,99.90
2023-03-29T21:27:42.855Z,99.90
2023-03-29T21:30:10.261Z,99.90
2023-03-29T21:32:36.971Z,99.90
2023-03-29T21:35:04.237Z,99.90
2023-03-29T21:37:30.891Z,99.90
2023-03-29T21:39:57.857Z,99.90
2023-03-29T21:42:24.602Z,99.90
2023-03-29T21:44:51.162Z,99.90
2023-03-29T21:47:17.882Z,99.90
2023-03-29T21:49:44.518Z,99.90
2023-03-29T21:52:11.097Z,99.90
2023-03-29T21:54:37.701Z,99.90
2023-03-29T21:57:04.399Z,99.90
2023-03-29T21:59:30.990Z,99.90
2023-03-29T22:01:57.728Z,99.90
2023-03-29T22:04:36.040Z,99.90
2023-03-29T22:07:03.653Z,99.90
2023-03-29T22:09:31.818Z,99.90
2023-03-29T22:11:59.630Z,99.90
2023-03-29T22:14:28.643Z,99.90
2023-03-29T22:16:55.397Z,99.90
2023-03-29T22:19:22.132Z,99.90
2023-03-29T22:21:48.711Z,99.90
2023-03-29T22:24:16.649Z,99.90
2023-03-29T22:26:44.878Z,99.90
2023-03-29T22:29:11.530Z,99.90
2023-03-29T22:31:39.361Z,99.90
2023-03-29T22:34:06.587Z,99.90
2023-03-29T22:36:33.415Z,99.90
2023-03-29T22:39:00.029Z,99.90
2023-03-29T22:41:28.041Z,99.90
2023-03-29T22:43:57.012Z,99.90
2023-03-29T22:46:24.372Z,99.90
2023-03-29T22:48:51.231Z,99.90
2023-03-29T22:51:18.221Z,99.90
2023-03-29T22:53:46.857Z,99.90
2023-03-29T22:56:15.386Z,99.90
2023-03-29T22:58:42.205Z,99.90
2023-03-29T23:01:09.119Z,99.90
2023-03-29T23:03:36.139Z,99.90
2023-03-29T23:06:02.874Z,99.90
2023-03-29T23:08:31.668Z,99.90
2023-03-29T23:10:58.441Z,99.90
2023-03-29T23:13:29.287Z,99.90
2023-03-29T23:15:59.040Z,99.90
2023-03-29T23:18:28.348Z,99.90
2023-03-29T23:20:56.588Z,99.90
2023-03-29T23:23:24.757Z,99.90
2023-03-29T23:25:52.689Z,99.90
2023-03-29T23:28:23.425Z,99.90
2023-03-29T23:31:06.950Z,99.90
2023-03-29T23:33:35.885Z,99.90
2023-03-29T23:36:05.512Z,99.90
2023-03-29T23:38:34.153Z,99.90
2023-03-29T23:41:03.656Z,99.90
2023-03-29T23:43:37.092Z,99.90
2023-03-29T23:46:06.894Z,99.90
2023-03-29T23:48:34.240Z,99.90
2023-03-29T23:51:02.495Z,99.90
2023-03-29T23:53:30.275Z,99.90
2023-03-29T23:56:01.530Z,99.90
2023-03-29T23:58:33.585Z,99.90
